Time;durP1;ratioP1;P1;durP2;ratioP2;P2;SDS_P1;SDS_P2;PMS_P1;PMS_P2;Temp;Humidity;BMP_temperature;BMP_pressure;BME280_temperature;BME280_humidity;BME280_pressure;Samples;Min_cycle;Max_cycle;Signal;HPM_P1;HPM_P2
2022/05/05 00:00:54;;;;;;;21.17;11.50;;;6.00;99.90;;;;;;5010484;28;20049;-35
2022/05/05 00:03:20;;;;;;;20.07;11.90;;;6.20;99.90;;;;;;5021103;28;20049;-35
2022/05/05 00:05:46;;;;;;;21.10;12.50;;;6.00;99.90;;;;;;5020574;28;20067;-35
2022/05/05 00:08:12;;;;;;;17.87;12.33;;;5.90;99.90;;;;;;5009970;28;20048;-35
2022/05/05 00:16:08;;;;;;;18.50;11.20;;;5.90;99.90;;;;;;5020553;28;20110;-35
2022/05/05 00:18:34;;;;;;;19.67;12.87;;;5.90;99.90;;;;;;5014612;28;21441;-35
2022/05/05 00:20:59;;;;;;;20.70;12.70;;;5.90;99.90;;;;;;5008937;28;20037;-35
2022/05/05 00:23:26;;;;;;;26.87;13.30;;;5.90;99.90;;;;;;5025042;28;20286;-35
2022/05/05 00:25:51;;;;;;;20.47;12.33;;;5.90;99.90;;;;;;5030448;28;20179;-35
2022/05/05 00:28:17;;;;;;;20.30;12.30;;;5.90;99.90;;;;;;5031863;28;20125;-35
2022/05/05 00:30:43;;;;;;;21.43;11.37;;;5.90;99.90;;;;;;5046371;28;20079;-35
2022/05/05 00:33:08;;;;;;;20.47;12.87;;;5.90;99.90;;;;;;5047100;28;20045;-35
2022/05/05 00:35:34;;;;;;;21.00;13.43;;;5.90;99.90;;;;;;5029757;28;20106;-35
2022/05/05 00:38:00;;;;;;;21.10;12.17;;;5.90;99.90;;;;;;5031421;28;20043;-35
2022/05/05 00:40:25;;;;;;;18.60;11.73;;;6.10;99.90;;;;;;5050407;28;20048;-35
2022/05/05 00:42:51;;;;;;;17.03;11.20;;;6.00;99.90;;;;;;5061558;28;20045;-35
2022/05/05 00:45:17;;;;;;;19.87;12.93;;;5.90;99.90;;;;;;5046924;28;20072;-35
2022/05/05 00:47:43;;;;;;;19.27;12.57;;;5.90;99.90;;;;;;5030786;28;20045;-35
2022/05/05 00:50:11;;;;;;;22.13;12.53;;;6.00;99.90;;;;;;5047501;28;20127;-35
2022/05/05 00:52:37;;;;;;;21.70;11.53;;;5.90;99.90;;;;;;5045060;28;20048;-35
2022/05/05 00:55:03;;;;;;;19.33;11.97;;;5.90;99.90;;;;;;5047481;28;20114;-35
2022/05/05 00:57:29;;;;;;;21.60;12.60;;;5.90;99.90;;;;;;5031339;28;20037;-35
2022/05/05 00:59:56;;;;;;;18.27;11.53;;;5.90;99.90;;;;;;5048449;28;20159;-35
2022/05/05 01:02:22;;;;;;;22.60;12.67;;;6.00;99.90;;;;;;5046364;28;20048;-35
2022/05/05 01:04:48;;;;;;;20.00;11.63;;;6.00;99.90;;;;;;5049354;28;20561;-35
2022/05/05 01:07:15;;;;;;;20.07;12.27;;;6.00;99.90;;;;;;5031114;28;20052;-35
2022/05/05 01:09:41;;;;;;;19.87;12.10;;;6.10;99.90;;;;;;5046830;28;20052;-35
2022/05/05 01:12:07;;;;;;;17.90;11.67;;;6.00;99.90;;;;;;5046350;28;20045;-35
2022/05/05 01:14:34;;;;;;;22.07;12.30;;;6.00;99.90;;;;;;5054305;28;20093;-35
2022/05/05 01:16:59;;;;;;;19.17;11.77;;;6.00;99.90;;;;;;5049752;28;20044;-35
2022/05/05 01:19:25;;;;;;;20.70;11.90;;;6.00;99.90;;;;;;5045999;28;20075;-35
2022/05/05 01:22:00;;;;;;;19.10;12.13;;;6.00;99.90;;;;;;5046882;28;20393;-35
2022/05/05 01:29:55;;;;;;;17.80;10.80;;;6.10;99.90;;;;;;5071188;28;20106;-35
2022/05/05 01:32:21;;;;;;;13.83;10.10;;;6.10;99.90;;;;;;5053543;28;20170;-35
2022/05/05 01:34:47;;;;;;;19.03;10.90;;;6.10;99.90;;;;;;5069474;28;20069;-35
2022/05/05 01:37:13;;;;;;;18.20;11.43;;;6.10;99.90;;;;;;5055857;28;20056;-35
2022/05/05 01:39:39;;;;;;;22.23;10.30;;;6.20;99.90;;;;;;5062991;28;20124;-35
2022/05/05 01:42:05;;;;;;;20.63;10.43;;;6.20;99.90;;;;;;5048136;28;20132;-35
2022/05/05 01:44:31;;;;;;;18.27;9.93;;;6.20;99.90;;;;;;5051353;28;20058;-35
2022/05/05 01:46:57;;;;;;;15.87;9.73;;;6.20;99.90;;;;;;5052702;28;20692;-35
2022/05/05 01:49:22;;;;;;;16.60;10.60;;;6.20;99.90;;;;;;5062162;28;20565;-35
2022/05/05 01:51:48;;;;;;;18.63;11.23;;;6.30;99.90;;;;;;5050366;28;20040;-35
2022/05/05 01:54:14;;;;;;;18.27;10.33;;;6.30;99.90;;;;;;5051274;28;20072;-35
2022/05/05 01:56:39;;;;;;;15.73;10.23;;;6.20;99.90;;;;;;5037980;28;20052;-35
2022/05/05 01:59:06;;;;;;;14.47;9.63;;;6.30;99.90;;;;;;5068183;28;20468;-35
2022/05/05 02:01:33;;;;;;;15.90;9.83;;;6.30;99.90;;;;;;5054277;28;20048;-35
2022/05/05 02:04:01;;;;;;;15.37;9.80;;;6.40;99.90;;;;;;5056247;28;20555;-35
2022/05/05 02:06:26;;;;;;;17.43;10.30;;;6.40;99.90;;;;;;5037217;28;20732;-35
2022/05/05 02:08:52;;;;;;;16.57;10.07;;;6.40;99.90;;;;;;5045911;28;20055;-35
2022/05/05 02:11:18;;;;;;;13.97;9.47;;;6.40;99.90;;;;;;5050615;28;20045;-35
2022/05/05 02:13:44;;;;;;;17.90;9.83;;;6.40;99.90;;;;;;5053787;28;20116;-35
2022/05/05 02:16:09;;;;;;;19.27;9.90;;;6.40;99.90;;;;;;5050737;28;20040;-36
2022/05/05 02:18:35;;;;;;;15.67;9.43;;;6.50;99.90;;;;;;5050745;28;20592;-35
2022/05/05 02:21:01;;;;;;;16.13;10.03;;;6.40;99.90;;;;;;5070344;28;20099;-35
2022/05/05 02:23:26;;;;;;;19.33;10.93;;;6.40;99.90;;;;;;5069364;28;20052;-35
2022/05/05 02:25:53;;;;;;;16.10;10.60;;;6.40;99.90;;;;;;5051126;28;20057;-35
2022/05/05 02:28:18;;;;;;;14.70;9.57;;;6.40;99.90;;;;;;5032768;28;20072;-35
2022/05/05 02:30:45;;;;;;;15.57;9.10;;;6.30;99.90;;;;;;5049865;28;20083;-35
2022/05/05 02:33:11;;;;;;;14.97;10.47;;;6.40;99.90;;;;;;5049210;28;20037;-35
2022/05/05 02:35:37;;;;;;;18.37;10.60;;;6.30;99.90;;;;;;5047876;28;20119;-35
2022/05/05 02:40:47;;;;;;;17.30;10.10;;;6.30;99.90;;;;;;5050184;28;20103;-35
2022/05/05 02:43:13;;;;;;;14.97;9.43;;;6.30;99.90;;;;;;5060335;28;20594;-35
2022/05/05 02:45:39;;;;;;;15.27;10.03;;;6.30;99.90;;;;;;5067998;28;20044;-35
2022/05/05 02:48:06;;;;;;;15.83;10.27;;;6.30;99.90;;;;;;5032492;28;20470;-35
2022/05/05 02:50:31;;;;;;;17.83;10.23;;;6.40;99.90;;;;;;5049848;28;20056;-35
2022/05/05 02:52:57;;;;;;;19.77;11.57;;;6.40;99.90;;;;;;5048887;28;20098;-35
2022/05/05 02:55:24;;;;;;;17.40;10.50;;;6.50;99.90;;;;;;5049722;28;20386;-35
2022/05/05 02:57:50;;;;;;;20.30;10.43;;;6.40;99.90;;;;;;5033177;28;20416;-35
2022/05/05 03:00:16;;;;;;;18.07;11.70;;;6.40;99.90;;;;;;5049312;28;20412;-35
2022/05/05 03:02:43;;;;;;;17.17;10.73;;;6.50;99.90;;;;;;5048561;28;20053;-35
2022/05/05 03:05:13;;;;;;;19.67;10.57;;;6.60;99.90;;;;;;5052243;28;20044;-35
2022/05/05 03:07:39;;;;;;;16.33;10.07;;;6.50;99.90;;;;;;5043245;28;20044;-35
2022/05/05 03:10:05;;;;;;;17.63;9.93;;;6.50;99.90;;;;;;5048856;28;20388;-35
2022/05/05 03:12:31;;;;;;;16.73;9.50;;;6.50;99.90;;;;;;5048352;28;20049;-35
2022/05/05 03:14:57;;;;;;;16.60;8.53;;;6.60;99.90;;;;;;5062245;28;20083;-35
2022/05/05 03:17:23;;;;;;;16.67;8.27;;;6.60;99.90;;;;;;5033090;28;20041;-35
2022/05/05 03:19:48;;;;;;;15.70;7.00;;;6.60;99.90;;;;;;5061410;28;20056;-35
2022/05/05 03:22:14;;;;;;;12.70;7.40;;;6.60;99.90;;;;;;5067309;28;20059;-35
2022/05/05 03:24:40;;;;;;;15.63;7.47;;;6.50;99.90;;;;;;5058509;28;20053;-35
2022/05/05 03:27:05;;;;;;;15.87;7.13;;;6.60;99.90;;;;;;5033045;28;20055;-35
2022/05/05 03:29:32;;;;;;;15.33;7.30;;;6.60;99.90;;;;;;5048800;28;20504;-35
2022/05/05 03:31:58;;;;;;;17.90;7.43;;;6.60;99.90;;;;;;5047185;28;20552;-35
2022/05/05 03:34:23;;;;;;;16.03;6.97;;;6.60;99.90;;;;;;5047656;28;20202;-35
2022/05/05 03:36:49;;;;;;;17.07;7.30;;;6.60;99.90;;;;;;5033820;28;20044;-35
2022/05/05 03:39:15;;;;;;;18.47;8.13;;;6.60;99.90;;;;;;5047922;28;20037;-35
2022/05/05 03:41:41;;;;;;;16.80;7.87;;;6.70;99.90;;;;;;5048673;28;20460;-35
2022/05/05 03:44:07;;;;;;;15.27;7.63;;;6.70;99.90;;;;;;5034597;28;20045;-35
2022/05/05 03:46:33;;;;;;;21.20;8.00;;;6.70;99.90;;;;;;5035031;28;20134;-36
2022/05/05 03:48:59;;;;;;;16.87;7.60;;;6.70;99.90;;;;;;5044790;28;20499;-35
2022/05/05 03:51:25;;;;;;;19.60;7.90;;;6.70;99.90;;;;;;5046837;28;20120;-34
2022/05/05 03:53:51;;;;;;;14.50;6.87;;;6.70;99.90;;;;;;5046870;28;20044;-35
2022/05/05 03:56:17;;;;;;;13.20;6.93;;;6.60;99.90;;;;;;5037717;28;20449;-35
2022/05/05 03:58:43;;;;;;;13.73;7.47;;;6.70;99.90;;;;;;5042943;28;20052;-34
2022/05/05 04:01:08;;;;;;;11.20;7.17;;;6.80;99.90;;;;;;5048899;28;20111;-35
2022/05/05 04:03:36;;;;;;;13.57;8.10;;;6.70;99.90;;;;;;5047171;28;20377;-35
2022/05/05 04:06:04;;;;;;;17.67;8.40;;;6.70;99.90;;;;;;5051146;28;20472;-34
2022/05/05 04:08:31;;;;;;;17.17;8.77;;;6.80;99.90;;;;;;5018347;28;20092;-34
2022/05/05 04:10:57;;;;;;;14.03;7.67;;;6.80;99.90;;;;;;5047698;28;20149;-35
2022/05/05 04:13:25;;;;;;;16.47;8.03;;;6.80;99.90;;;;;;5047743;28;20510;-34
2022/05/05 04:15:51;;;;;;;19.27;7.80;;;6.80;99.90;;;;;;5047929;28;20098;-34
2022/05/05 04:18:17;;;;;;;14.87;8.17;;;6.90;99.90;;;;;;5032244;28;20041;-35
2022/05/05 04:20:42;;;;;;;19.33;8.47;;;6.90;99.90;;;;;;5060884;28;20051;-34
2022/05/05 04:23:09;;;;;;;16.50;9.07;;;6.80;99.90;;;;;;5067087;28;20403;-34
2022/05/05 04:25:39;;;;;;;16.93;8.47;;;6.80;99.90;;;;;;5046740;28;20041;-35
2022/05/05 04:28:07;;;;;;;19.07;9.43;;;6.80;99.90;;;;;;5031833;28;20051;-35
2022/05/05 04:30:32;;;;;;;16.97;8.53;;;7.00;99.90;;;;;;5047812;28;20049;-34
2022/05/05 04:32:58;;;;;;;15.13;8.73;;;6.80;99.90;;;;;;5046742;28;20048;-35
2022/05/05 04:35:24;;;;;;;13.67;7.80;;;6.90;99.90;;;;;;5046858;28;20060;-34
2022/05/05 04:37:50;;;;;;;16.60;8.37;;;6.90;99.90;;;;;;5030872;28;20052;-35
2022/05/05 04:40:15;;;;;;;13.77;7.93;;;6.90;99.90;;;;;;5047220;28;20040;-35
2022/05/05 04:42:41;;;;;;;15.17;8.00;;;6.90;99.90;;;;;;5047088;28;20044;-34
2022/05/05 04:45:07;;;;;;;18.70;9.40;;;6.90;99.90;;;;;;5059336;28;20037;-35
2022/05/05 04:47:33;;;;;;;12.83;8.33;;;7.00;99.90;;;;;;5031448;28;20132;-36
2022/05/05 04:49:59;;;;;;;14.47;9.03;;;7.10;99.90;;;;;;5046173;28;20458;-35
2022/05/05 04:52:25;;;;;;;11.87;9.30;;;7.00;99.90;;;;;;5046186;28;20044;-35
2022/05/05 04:54:53;;;;;;;12.73;9.20;;;7.00;99.90;;;;;;5047088;28;20106;-35
2022/05/05 04:57:19;;;;;;;16.77;9.43;;;7.00;99.90;;;;;;5030949;28;20515;-35
2022/05/05 04:59:45;;;;;;;16.77;9.43;;;7.00;99.90;;;;;;5046530;28;20041;-34
2022/05/05 05:02:10;;;;;;;16.90;9.97;;;7.00;99.90;;;;;;5047911;28;20102;-35
2022/05/05 05:04:36;;;;;;;15.57;9.80;;;7.00;99.90;;;;;;5047047;28;20153;-35
2022/05/05 05:07:02;;;;;;;16.90;10.47;;;7.10;99.90;;;;;;5034402;28;20132;-35
2022/05/05 05:09:28;;;;;;;17.10;10.37;;;7.00;99.90;;;;;;5053699;28;20080;-35
2022/05/05 05:11:54;;;;;;;16.20;9.57;;;7.10;99.90;;;;;;5044898;28;20456;-35
2022/05/05 05:14:20;;;;;;;17.33;9.60;;;7.10;99.90;;;;;;5045429;28;20081;-35
2022/05/05 05:16:46;;;;;;;18.70;10.53;;;7.10;99.90;;;;;;5031357;28;20496;-35
2022/05/05 05:19:11;;;;;;;16.73;9.67;;;7.10;99.90;;;;;;5044944;28;20067;-35
2022/05/05 05:21:37;;;;;;;16.37;9.83;;;7.30;99.90;;;;;;5046559;28;20166;-35
2022/05/05 05:24:03;;;;;;;18.07;10.17;;;7.20;99.90;;;;;;5057683;28;20404;-35
2022/05/05 05:26:29;;;;;;;17.23;10.63;;;7.20;99.90;;;;;;5033733;28;20049;-35
2022/05/05 05:28:55;;;;;;;16.73;9.80;;;7.30;99.90;;;;;;5034787;28;20236;-35
2022/05/05 05:31:21;;;;;;;18.53;10.33;;;7.40;99.90;;;;;;5035473;28;20037;-35
2022/05/05 05:33:48;;;;;;;15.20;10.17;;;7.30;99.90;;;;;;5039378;28;20132;-35
2022/05/05 05:36:14;;;;;;;15.73;10.00;;;7.40;99.90;;;;;;5024876;28;20052;-35
2022/05/05 05:38:39;;;;;;;18.03;10.23;;;7.50;99.90;;;;;;5041217;28;20045;-35
2022/05/05 05:41:05;;;;;;;17.43;10.00;;;7.40;99.90;;;;;;5035306;28;20051;-35
2022/05/05 05:43:31;;;;;;;15.27;9.83;;;7.50;99.90;;;;;;5058566;28;20049;-35
2022/05/05 05:45:56;;;;;;;15.47;9.53;;;7.60;99.90;;;;;;5066590;28;20384;-35
2022/05/05 05:48:22;;;;;;;22.17;9.60;;;7.60;99.90;;;;;;5051180;28;20045;-34
2022/05/05 05:50:48;;;;;;;14.63;9.73;;;7.70;99.90;;;;;;5046973;28;20049;-35
2022/05/05 05:53:13;;;;;;;15.97;10.23;;;7.70;99.90;;;;;;5059095;28;20084;-35
2022/05/05 05:55:39;;;;;;;19.77;11.70;;;7.80;99.90;;;;;;5046872;28;20049;-35
2022/05/05 05:58:05;;;;;;;16.20;10.10;;;7.80;99.90;;;;;;5029568;28;20045;-35
2022/05/05 06:00:32;;;;;;;20.37;10.20;;;7.90;99.90;;;;;;5046996;28;20052;-35
2022/05/05 06:05:43;;;;;;;19.27;9.47;;;8.00;99.90;;;;;;5036357;28;20102;-35
2022/05/05 06:08:08;;;;;;;17.80;9.43;;;8.00;99.90;;;;;;5031239;28;20045;-35
2022/05/05 06:10:36;;;;;;;17.17;8.93;;;8.10;99.90;;;;;;5046968;28;20049;-35
2022/05/05 06:13:02;;;;;;;14.40;8.73;;;8.20;99.90;;;;;;5052700;28;20399;-35
2022/05/05 06:15:28;;;;;;;15.53;10.13;;;8.20;99.90;;;;;;5070395;28;20542;-35
2022/05/05 06:17:54;;;;;;;16.23;10.77;;;8.20;99.90;;;;;;5036162;28;20045;-35
2022/05/05 06:20:19;;;;;;;24.83;12.67;;;8.30;99.90;;;;;;5059550;28;20041;-35
2022/05/05 06:22:46;;;;;;;22.70;12.70;;;8.30;99.90;;;;;;5050611;28;20099;-35
2022/05/05 06:25:11;;;;;;;22.30;13.10;;;8.30;99.90;;;;;;5052704;28;20814;-35
2022/05/05 06:27:38;;;;;;;21.30;12.00;;;8.50;99.90;;;;;;5035222;28;20076;-35
2022/05/05 06:30:05;;;;;;;16.00;10.13;;;8.50;99.90;;;;;;5058661;28;20036;-35
2022/05/05 06:32:31;;;;;;;18.87;10.33;;;8.60;99.90;;;;;;5060717;28;20047;-35
2022/05/05 06:34:56;;;;;;;19.03;10.87;;;8.60;99.90;;;;;;5057764;28;20061;-35
2022/05/05 06:37:25;;;;;;;22.20;11.13;;;8.70;99.90;;;;;;5049621;28;20091;-35
2022/05/05 06:39:51;;;;;;;23.37;10.67;;;8.70;99.90;;;;;;5058632;28;20408;-35
2022/05/05 06:42:17;;;;;;;20.90;9.40;;;8.80;99.90;;;;;;5052126;28;20037;-35
2022/05/05 06:44:43;;;;;;;17.10;9.03;;;8.90;99.90;;;;;;5054415;28;20423;-35
2022/05/05 06:47:08;;;;;;;20.27;12.50;;;8.90;99.90;;;;;;5037141;28;20052;-35
2022/05/05 06:49:34;;;;;;;23.07;10.77;;;9.00;99.90;;;;;;5053176;28;20036;-35
2022/05/05 06:52:00;;;;;;;21.23;8.90;;;9.10;99.90;;;;;;5050911;28;20049;-35
2022/05/05 06:54:26;;;;;;;18.20;9.93;;;9.10;99.90;;;;;;5055515;28;20048;-35
2022/05/05 06:56:52;;;;;;;18.63;9.57;;;9.20;99.90;;;;;;5037530;28;20048;-35
2022/05/05 06:59:18;;;;;;;18.03;10.07;;;9.30;99.90;;;;;;5054153;28;20099;-35
2022/05/05 07:01:53;;;;;;;16.33;9.37;;;9.30;99.90;;;;;;5055013;28;20400;-35
2022/05/05 07:07:08;;;;;;;17.90;10.60;;;9.50;99.90;;;;;;5037474;28;20079;-35
2022/05/05 07:12:19;;;;;;;16.53;10.27;;;9.60;99.90;;;;;;5057457;28;20396;-35
2022/05/05 07:14:45;;;;;;;16.07;8.73;;;9.70;99.90;;;;;;5022666;28;20087;-35
2022/05/05 07:17:11;;;;;;;14.63;8.10;;;9.80;99.90;;;;;;4999070;28;20509;-35
2022/05/05 07:19:37;;;;;;;15.27;8.60;;;9.90;99.90;;;;;;5015072;28;20090;-35
2022/05/05 07:22:03;;;;;;;18.43;7.50;;;9.90;99.90;;;;;;5011378;28;20041;-35
2022/05/05 07:24:32;;;;;;;16.57;7.27;;;10.00;99.90;;;;;;5010498;28;20044;-35
2022/05/05 07:27:01;;;;;;;14.80;7.70;;;10.10;99.90;;;;;;5002583;28;20043;-35
2022/05/05 07:29:27;;;;;;;17.43;7.33;;;10.20;99.90;;;;;;5010160;28;20059;-35
2022/05/05 07:31:53;;;;;;;14.67;7.70;;;10.30;99.90;;;;;;5008836;28;20506;-35
2022/05/05 07:34:18;;;;;;;16.97;7.43;;;10.50;99.90;;;;;;5010884;28;20049;-35
2022/05/05 07:36:45;;;;;;;17.07;7.53;;;10.50;99.90;;;;;;4993183;28;20057;-36
2022/05/05 07:39:11;;;;;;;16.43;7.47;;;10.50;99.90;;;;;;5017348;28;20045;-35
2022/05/05 07:41:38;;;;;;;16.20;7.53;;;10.70;99.90;;;;;;5021570;28;20041;-36
2022/05/05 07:44:05;;;;;;;12.70;7.30;;;10.80;99.90;;;;;;5019635;28;20183;-36
2022/05/05 07:46:32;;;;;;;15.40;6.70;;;10.90;99.90;;;;;;4993226;28;20054;-36
2022/05/05 07:49:02;;;;;;;14.80;6.90;;;10.90;99.90;;;;;;5009871;28;20052;-35
2022/05/05 07:51:28;;;;;;;15.95;6.57;;;11.00;99.90;;;;;;5012288;28;20033;-36
2022/05/05 07:56:39;;;;;;;14.07;6.60;;;11.20;99.90;;;;;;4998121;28;20062;-36
2022/05/05 07:59:05;;;;;;;17.70;7.17;;;11.30;99.90;;;;;;5013263;28;20053;-36
2022/05/05 08:01:31;;;;;;;15.07;6.60;;;11.40;99.90;;;;;;5004669;28;20049;-36
2022/05/05 08:03:57;;;;;;;17.08;7.97;;;11.40;99.90;;;;;;5019918;28;20487;-35
2022/05/05 08:06:23;;;;;;;14.40;7.15;;;11.50;99.90;;;;;;5010656;28;20103;-36
2022/05/05 08:08:49;;;;;;;17.90;7.18;;;11.60;99.90;;;;;;5019491;28;20095;-35
2022/05/05 08:11:14;;;;;;;16.23;7.53;;;11.60;99.90;;;;;;5013264;28;20053;-36
2022/05/05 08:13:40;;;;;;;14.27;6.72;;;11.70;99.90;;;;;;5016136;28;20048;-36
2022/05/05 08:16:06;;;;;;;15.40;6.65;;;11.80;99.90;;;;;;5023639;28;20062;-36
2022/05/05 08:18:32;;;;;;;20.88;7.07;;;11.70;99.90;;;;;;5011706;28;20424;-36
2022/05/05 08:20:58;;;;;;;14.73;7.03;;;11.90;99.90;;;;;;5021481;28;20046;-36
2022/05/05 08:23:24;;;;;;;16.38;7.43;;;12.00;99.90;;;;;;5006638;28;20648;-36
2022/05/05 08:28:36;;;;;;;12.05;7.13;;;12.20;99.90;;;;;;5009998;28;20087;-36
2022/05/05 08:31:03;;;;;;;16.02;7.35;;;12.30;99.90;;;;;;5025949;28;20053;-36
2022/05/05 08:33:29;;;;;;;15.77;7.10;;;12.30;99.90;;;;;;5024410;28;20503;-36
2022/05/05 08:35:56;;;;;;;13.98;7.22;;;12.40;99.90;;;;;;5024390;28;20049;-36
2022/05/05 08:38:23;;;;;;;12.70;6.15;;;12.40;99.90;;;;;;5008851;28;20069;-36
2022/05/05 08:40:49;;;;;;;12.30;6.75;;;12.50;99.90;;;;;;5024534;28;20037;-36
2022/05/05 08:43:15;;;;;;;19.42;6.28;;;12.60;99.90;;;;;;5021577;28;20048;-36
2022/05/05 08:45:41;;;;;;;19.33;9.38;;;12.70;99.90;;;;;;5025090;28;20049;-36
2022/05/05 08:48:08;;;;;;;14.68;6.57;;;12.80;99.90;;;;;;4996008;28;20057;-36
2022/05/05 08:50:36;;;;;;;11.63;6.00;;;12.90;99.90;;;;;;5009711;28;20095;-36
2022/05/05 08:53:04;;;;;;;12.80;6.07;;;13.00;99.90;;;;;;5007468;28;20041;-36
2022/05/05 08:55:31;;;;;;;13.60;6.22;;;13.10;99.90;;;;;;5014650;28;20065;-36
2022/05/05 08:57:57;;;;;;;14.02;6.03;;;13.20;99.90;;;;;;4993042;28;20049;-36
2022/05/05 09:00:24;;;;;;;14.25;6.88;;;13.30;99.90;;;;;;5012926;28;20135;-37
2022/05/05 09:02:54;;;;;;;12.18;6.55;;;13.40;99.90;;;;;;5009202;28;20048;-37
2022/05/05 09:05:42;;;;;;;13.95;6.20;;;13.50;99.90;;;;;;5013911;28;20049;-36
2022/05/05 09:08:10;;;;;;;12.93;6.60;;;13.60;99.90;;;;;;4992642;28;20127;-37
2022/05/05 09:10:44;;;;;;;13.70;6.13;;;13.70;99.90;;;;;;5011391;28;20073;-37
2022/05/05 09:13:10;;;;;;;12.82;5.35;;;13.80;99.90;;;;;;5011391;28;20145;-37
2022/05/05 09:15:37;;;;;;;8.57;4.78;;;13.90;99.90;;;;;;5011948;28;20049;-36
2022/05/05 09:18:19;;;;;;;12.88;6.28;;;14.00;99.90;;;;;;4993413;28;20063;-37
2022/05/05 09:20:46;;;;;;;9.23;5.18;;;14.10;99.90;;;;;;5010811;28;20571;-37
2022/05/05 09:23:34;;;;;;;11.07;5.40;;;14.00;99.90;;;;;;5008732;28;20049;-37
2022/05/05 09:26:01;;;;;;;8.77;5.45;;;14.10;99.90;;;;;;5009188;28;20061;-37
2022/05/05 09:28:30;;;;;;;12.13;6.50;;;14.30;99.90;;;;;;4993380;28;20111;-37
2022/05/05 09:31:03;;;;;;;12.48;7.22;;;14.30;99.90;;;;;;5011668;28;20451;-37
2022/05/05 09:33:37;;;;;;;14.38;7.30;;;14.40;99.90;;;;;;5013231;28;20050;-37
2022/05/05 09:36:05;;;;;;;13.05;6.28;;;14.50;99.90;;;;;;5010193;28;20053;-37
2022/05/05 09:38:53;;;;;;;10.18;6.28;;;14.60;99.90;;;;;;5000986;28;20045;-37
2022/05/05 09:41:33;;;;;;;11.85;6.28;;;14.60;99.90;;;;;;5012588;28;20053;-37
2022/05/05 09:44:11;;;;;;;12.02;7.07;;;14.80;99.90;;;;;;5023162;28;20552;-37
2022/05/05 09:46:37;;;;;;;14.52;7.15;;;14.80;99.90;;;;;;5012513;28;20629;-37
2022/05/05 09:49:19;;;;;;;12.52;8.07;;;14.90;99.90;;;;;;5023493;28;21260;-35
2022/05/05 09:57:43;;;;;;;13.25;7.18;;;15.10;99.90;;;;;;5004820;28;20109;-35
2022/05/05 10:05:49;;;;;;;11.77;7.70;;;15.40;99.90;;;;;;5015340;28;20492;-37
2022/05/05 10:08:19;;;;;;;13.23;7.60;;;15.40;99.90;;;;;;5012008;28;20053;-37
2022/05/05 10:10:45;;;;;;;16.13;7.57;;;15.40;99.90;;;;;;5024114;28;20037;-37
2022/05/05 10:13:13;;;;;;;14.55;8.35;;;15.50;99.90;;;;;;5026470;28;20057;-37
2022/05/05 10:15:42;;;;;;;11.77;7.03;;;15.60;99.90;;;;;;5024116;28;20463;-37
2022/05/05 10:18:08;;;;;;;14.88;7.20;;;15.70;99.90;;;;;;5008030;28;21153;-37
2022/05/05 10:20:35;;;;;;;11.65;7.72;;;15.80;99.90;;;;;;5021518;28;20098;-37
2022/05/05 10:23:27;;;;;;;11.88;7.78;;;15.90;99.90;;;;;;5017678;28;20061;-37
2022/05/05 10:25:54;;;;;;;13.48;7.75;;;16.00;99.90;;;;;;5026218;28;20499;-37
2022/05/05 10:28:47;;;;;;;12.73;8.13;;;16.00;99.90;;;;;;5012069;28;20060;-37
2022/05/05 10:31:31;;;;;;;13.38;7.25;;;16.10;99.90;;;;;;5027839;28;20184;-37
2022/05/05 10:34:06;;;;;;;12.30;7.57;;;16.20;99.90;;;;;;5012631;28;20063;-37
2022/05/05 10:36:34;;;;;;;11.52;7.32;;;16.40;99.90;;;;;;5013240;28;20049;-38
2022/05/05 10:39:19;;;;;;;11.60;7.20;;;16.40;99.90;;;;;;5019051;28;20311;-38
2022/05/05 10:41:45;;;;;;;13.68;8.15;;;16.50;99.90;;;;;;5014451;28;20671;-38
2022/05/05 10:44:18;;;;;;;11.50;8.15;;;16.50;99.90;;;;;;5009155;28;20067;-37
2022/05/05 10:47:10;;;;;;;13.00;7.90;;;16.60;99.90;;;;;;4994569;28;20560;-38
2022/05/05 10:49:42;;;;;;;12.93;8.05;;;16.60;99.90;;;;;;5013732;28;20585;-37
2022/05/05 10:52:10;;;;;;;11.68;7.80;;;16.60;99.90;;;;;;5018687;28;20076;-38
2022/05/05 10:54:42;;;;;;;13.45;8.95;;;16.70;99.90;;;;;;5012390;28;20060;-37
2022/05/05 10:57:26;;;;;;;14.18;8.13;;;16.70;99.90;;;;;;5001209;28;20075;-39
2022/05/05 11:00:15;;;;;;;12.60;7.80;;;16.70;99.90;;;;;;5016451;28;20048;-37
2022/05/05 11:03:00;;;;;;;11.27;8.02;;;16.70;99.90;;;;;;5020483;28;20059;-38
2022/05/05 11:05:31;;;;;;;12.52;8.15;;;16.80;99.90;;;;;;5020679;28;20079;-38
2022/05/05 11:08:07;;;;;;;14.05;9.30;;;16.90;99.90;;;;;;5009905;28;20500;-38
2022/05/05 11:13:40;;;;;;;13.57;8.65;;;17.10;99.90;;;;;;5015845;28;20111;-38
2022/05/05 11:22:15;;;;;;;13.50;8.63;;;17.40;99.90;;;;;;5021606;28;20198;-38
2022/05/05 11:24:48;;;;;;;12.30;7.75;;;17.40;99.90;;;;;;5012988;28;20050;-38
2022/05/05 11:27:19;;;;;;;12.35;8.00;;;17.40;99.90;;;;;;4998724;28;20097;-38
2022/05/05 11:29:56;;;;;;;11.57;7.90;;;17.40;99.90;;;;;;5013321;28;20045;-38
2022/05/05 11:32:29;;;;;;;11.00;8.18;;;17.50;99.90;;;;;;5025495;28;20135;-38
2022/05/05 11:34:55;;;;;;;11.75;8.82;;;17.50;99.90;;;;;;5024622;28;20069;-38
2022/05/05 11:37:20;;;;;;;12.40;8.55;;;17.60;99.90;;;;;;4962159;28;20314;-38
2022/05/05 11:39:48;;;;;;;12.30;8.10;;;17.70;99.90;;;;;;4986022;28;20082;-38
2022/05/05 11:42:14;;;;;;;10.93;7.35;;;17.80;99.90;;;;;;5013756;28;20056;-38
2022/05/05 11:44:41;;;;;;;10.50;7.10;;;17.90;99.90;;;;;;5005717;28;22028;-38
2022/05/05 11:47:16;;;;;;;11.48;7.45;;;18.00;99.90;;;;;;4998747;28;20053;-38
2022/05/05 11:49:46;;;;;;;8.98;7.18;;;18.10;99.90;;;;;;5013717;28;20524;-38
2022/05/05 11:52:17;;;;;;;10.35;7.45;;;18.10;99.90;;;;;;5016361;28;20383;-38
2022/05/05 11:54:47;;;;;;;11.38;7.45;;;18.10;99.90;;;;;;5010277;28;20171;-38
2022/05/05 11:57:29;;;;;;;13.57;7.35;;;18.20;99.90;;;;;;4997695;28;20067;-38
2022/05/05 12:02:40;;;;;;;10.75;6.85;;;18.40;99.90;;;;;;5010922;28;20281;-38
2022/05/05 12:05:08;;;;;;;11.90;7.30;;;18.50;99.90;;;;;;5009164;28;20500;-38
2022/05/05 12:07:35;;;;;;;9.80;6.80;;;18.60;99.90;;;;;;4994637;28;20289;-36
2022/05/05 12:10:06;;;;;;;10.57;6.85;;;18.70;99.90;;;;;;5010371;28;20053;-36
2022/05/05 12:12:32;;;;;;;10.65;7.72;;;18.70;99.90;;;;;;5007378;28;20049;-36
2022/05/05 12:15:00;;;;;;;10.75;7.75;;;18.70;99.90;;;;;;5016197;28;20059;-37
2022/05/05 12:17:37;;;;;;;9.70;7.00;;;18.70;99.90;;;;;;4991564;28;20049;-38
2022/05/05 12:20:07;;;;;;;11.48;7.93;;;18.80;99.90;;;;;;5008002;28;20041;-38
2022/05/05 12:22:38;;;;;;;10.93;8.02;;;18.80;99.90;;;;;;5009959;28;20048;-38
2022/05/05 12:25:16;;;;;;;9.73;6.95;;;18.90;99.90;;;;;;5014445;28;20289;-38
2022/05/05 12:28:06;;;;;;;10.45;7.03;;;18.90;99.90;;;;;;4999871;28;20497;-38
2022/05/05 12:30:39;;;;;;;9.57;6.35;;;19.00;99.90;;;;;;5013054;28;20107;-39
2022/05/05 12:33:09;;;;;;;12.18;6.90;;;19.10;99.90;;;;;;5012265;28;20033;-38
2022/05/05 12:35:46;;;;;;;10.20;6.80;;;19.10;99.90;;;;;;5016246;28;20053;-38
2022/05/05 12:38:14;;;;;;;11.20;7.05;;;19.10;99.90;;;;;;5000019;28;20626;-38
2022/05/05 12:40:41;;;;;;;10.32;7.35;;;19.10;99.90;;;;;;5020814;28;20060;-38
2022/05/05 12:43:16;;;;;;;9.60;6.68;;;19.20;99.90;;;;;;5023093;28;20049;-38
2022/05/05 12:45:41;;;;;;;9.35;7.35;;;19.30;99.90;;;;;;5009852;28;20064;-38
2022/05/05 12:48:09;;;;;;;9.50;6.40;;;19.40;99.90;;;;;;4999382;28;20057;-38
2022/05/05 12:50:43;;;;;;;10.93;7.32;;;19.40;99.90;;;;;;5017826;28;20049;-38
2022/05/05 13:01:33;;;;;;;11.50;7.10;;;19.20;99.90;;;;;;5007187;28;20052;-38
2022/05/05 13:04:07;;;;;;;9.32;6.50;;;19.20;99.90;;;;;;5015298;28;20156;-38
2022/05/05 13:06:37;;;;;;;10.07;6.65;;;19.40;99.90;;;;;;5000712;28;20040;-38
2022/05/05 13:09:08;;;;;;;9.73;6.60;;;19.40;99.90;;;;;;5015212;28;20041;-36
2022/05/05 13:11:38;;;;;;;8.50;6.47;;;19.50;99.90;;;;;;5012899;28;20915;-36
2022/05/05 13:14:04;;;;;;;8.43;6.25;;;19.60;99.90;;;;;;5019489;28;20199;-36
2022/05/05 13:16:31;;;;;;;8.30;6.00;;;19.80;99.90;;;;;;4999169;28;20488;-37
2022/05/05 13:19:01;;;;;;;11.32;6.75;;;19.70;99.90;;;;;;5017138;28;20474;-37
2022/05/05 13:21:28;;;;;;;11.93;6.47;;;19.80;99.90;;;;;;5014336;28;20127;-36
2022/05/05 13:23:54;;;;;;;7.65;5.43;;;19.90;99.90;;;;;;5019578;28;20052;-37
2022/05/05 13:26:20;;;;;;;7.53;5.38;;;20.00;99.90;;;;;;5012033;28;20045;-36
2022/05/05 13:28:45;;;;;;;6.78;4.60;;;20.00;99.90;;;;;;5013074;28;20073;-36
2022/05/05 13:31:11;;;;;;;5.38;3.92;;;20.10;99.90;;;;;;5020736;28;20075;-36
2022/05/05 13:33:37;;;;;;;5.65;3.80;;;20.10;99.90;;;;;;5014784;28;20440;-36
2022/05/05 13:36:03;;;;;;;8.20;6.60;;;20.00;99.90;;;;;;5009577;28;20594;-36
2022/05/05 13:38:29;;;;;;;10.95;8.13;;;20.10;99.90;;;;;;4999721;28;20049;-36
2022/05/05 13:40:57;;;;;;;13.15;8.60;;;20.20;99.90;;;;;;5015235;28;20057;-36
2022/05/05 13:43:23;;;;;;;9.73;7.43;;;20.20;99.90;;;;;;5015530;28;20052;-39